Time;durP1;ratioP1;P1;durP2;ratioP2;P2;SDS_P1;SDS_P2;PMS_P1;PMS_P2;Temp;Humidity;BMP_temperature;BMP_pressure;BME280_temperature;BME280_humidity;BME280_pressure;Samples;Min_cycle;Max_cycle;Signal;HPM_P1;HPM_P2
2023/03/18 00:01:54;;;;;;;;;;;;;;;1.39;55.31;96855.35;109312;1272;22505;-77
2023/03/18 00:04:24;;;;;;;;;;;;;;;1.40;55.16;96854.62;109313;1272;22927;-77
2023/03/18 00:06:54;;;;;;;;;;;;;;;1.39;55.25;96850.92;109231;1265;49429;-77
2023/03/18 00:09:24;;;;;;;;;;;;;;;1.38;55.20;96848.96;109317;1268;22467;-77
2023/03/18 00:11:53;;;;;;;;;;;;;;;1.39;55.17;96846.79;109319;1266;22497;-77
2023/03/18 00:14:23;;;;;;;;;;;;;;;1.39;54.90;96845.86;109130;1270;22530;-77
2023/03/18 00:16:52;;;;;;;;;;;;;;;1.37;54.91;96838.41;109238;1266;48438;-77
2023/03/18 00:19:23;;;;;;;;;;;;;;;1.40;54.98;96836.27;109281;1265;22430;-77
2023/03/18 00:21:53;;;;;;;;;;;;;;;1.44;55.17;96832.70;109342;1272;25393;-77
2023/03/18 00:24:22;;;;;;;;;;;;;;;1.44;55.19;96831.17;109302;1272;22898;-77
2023/03/18 00:26:52;;;;;;;;;;;;;;;1.45;55.16;96827.54;109233;1272;40342;-77
2023/03/18 00:29:22;;;;;;;;;;;;;;;1.44;55.28;96829.93;109293;1266;22479;-78
2023/03/18 00:31:51;;;;;;;;;;;;;;;1.46;54.85;96822.31;109269;1264;24360;-77
2023/03/18 00:34:21;;;;;;;;;;;;;;;1.50;54.82;96823.83;109300;1268;22450;-77
2023/03/18 00:36:55;;;;;;;;;;;;;;;1.53;54.74;96823.80;109225;1267;43775;-77
2023/03/18 00:39:27;;;;;;;;;;;;;;;1.54;54.73;96817.88;109278;1266;22618;-78
2023/03/18 00:41:57;;;;;;;;;;;;;;;1.57;54.84;96814.90;109409;1272;22493;-78
2023/03/18 00:44:27;;;;;;;;;;;;;;;1.56;54.62;96818.64;109221;1269;22530;-77
2023/03/18 00:46:57;;;;;;;;;;;;;;;1.53;54.58;96814.71;109287;1266;65536;-77
2023/03/18 00:49:26;;;;;;;;;;;;;;;1.49;54.70;96812.11;109328;1272;24315;-78
2023/03/18 00:51:56;;;;;;;;;;;;;;;1.45;54.81;96807.05;109294;1267;22653;-77
2023/03/18 00:54:27;;;;;;;;;;;;;;;1.41;54.87;96808.33;109328;1272;22511;-77
2023/03/18 00:56:56;;;;;;;;;;;;;;;1.34;55.27;96808.47;109269;1261;34637;-77
2023/03/18 00:59:26;;;;;;;;;;;;;;;1.27;55.55;96806.67;109296;1272;24248;-77
2023/03/18 01:01:55;;;;;;;;;;;;;;;1.24;55.41;96804.77;109263;1272;22514;-77
2023/03/18 01:04:26;;;;;;;;;;;;;;;1.22;55.64;96800.41;109287;1272;22775;-77
2023/03/18 01:06:56;;;;;;;;;;;;;;;1.22;55.55;96803.98;109274;1272;85990;-77
2023/03/18 01:09:26;;;;;;;;;;;;;;;1.17;55.75;96801.27;109338;1265;22727;-77
2023/03/18 01:11:56;;;;;;;;;;;;;;;1.13;55.46;96798.41;109301;1260;22512;-77
2023/03/18 01:14:28;;;;;;;;;;;;;;;1.10;55.88;96798.38;109235;1272;22490;-77
2023/03/18 01:16:58;;;;;;;;;;;;;;;1.06;56.33;96797.61;109275;1266;23296;-77
2023/03/18 01:19:28;;;;;;;;;;;;;;;1.01;56.43;96792.86;109259;1272;22566;-77
2023/03/18 01:21:57;;;;;;;;;;;;;;;0.95;56.63;96792.08;109329;1265;22551;-77
2023/03/18 01:24:27;;;;;;;;;;;;;;;0.87;56.62;96793.27;109289;1266;22502;-77
2023/03/18 01:26:57;;;;;;;;;;;;;;;0.82;56.52;96788.16;109249;1269;55312;-77
2023/03/18 01:29:26;;;;;;;;;;;;;;;0.75;56.65;96787.05;109261;1272;25399;-77
2023/03/18 01:31:56;;;;;;;;;;;;;;;0.68;56.98;96784.33;109313;1264;22526;-77
2023/03/18 01:34:26;;;;;;;;;;;;;;;0.62;57.26;96776.05;109292;1272;22495;-77
2023/03/18 01:36:56;;;;;;;;;;;;;;;0.73;57.15;96775.89;109253;1272;48232;-77
2023/03/18 01:39:25;;;;;;;;;;;;;;;0.86;57.03;96767.81;109312;1265;22539;-77
2023/03/18 01:41:55;;;;;;;;;;;;;;;1.05;56.76;96766.37;109255;1272;23256;-77
2023/03/18 01:44:25;;;;;;;;;;;;;;;1.34;56.42;96764.42;109200;1266;22921;-77
2023/03/18 01:46:55;;;;;;;;;;;;;;;1.50;55.97;96764.58;109248;1272;44186;-77
2023/03/18 01:49:28;;;;;;;;;;;;;;;1.55;55.90;96770.34;109297;1266;22498;-78
2023/03/18 01:51:58;;;;;;;;;;;;;;;1.55;55.71;96770.90;109320;1265;22496;-77
2023/03/18 01:54:30;;;;;;;;;;;;;;;1.54;55.68;96770.98;109261;1265;22533;-77
2023/03/18 01:57:01;;;;;;;;;;;;;;;1.50;55.58;96773.35;109249;1271;58492;-77
2023/03/18 01:59:32;;;;;;;;;;;;;;;1.54;55.56;96774.60;109291;1272;22484;-77
2023/03/18 02:02:05;;;;;;;;;;;;;;;1.59;55.28;96772.17;109220;1270;22625;-77
2023/03/18 02:04:37;;;;;;;;;;;;;;;1.60;55.09;96775.39;109248;1272;24225;-77
2023/03/18 02:07:07;;;;;;;;;;;;;;;1.60;55.12;96773.55;109162;1267;37413;-77
2023/03/18 02:09:37;;;;;;;;;;;;;;;1.56;55.05;96775.67;109290;1272;23353;-78
2023/03/18 02:12:08;;;;;;;;;;;;;;;1.54;54.92;96779.05;109275;1269;23305;-77
2023/03/18 02:14:38;;;;;;;;;;;;;;;1.52;55.11;96775.30;109323;1272;22576;-77
2023/03/18 02:17:09;;;;;;;;;;;;;;;1.45;55.01;96775.62;109211;1272;54275;-77
2023/03/18 02:19:46;;;;;;;;;;;;;;;1.42;55.13;96777.55;109220;1269;25225;-77
2023/03/18 02:22:22;;;;;;;;;;;;;;;1.43;54.96;96776.20;109247;1272;22499;-78
2023/03/18 02:24:59;;;;;;;;;;;;;;;1.52;55.16;96778.31;109234;1269;22511;-78
2023/03/18 02:27:33;;;;;;;;;;;;;;;1.58;54.98;96775.29;109340;1266;22841;-78
2023/03/18 02:30:06;;;;;;;;;;;;;;;1.70;54.63;96780.86;109268;1269;22447;-78
2023/03/18 02:32:36;;;;;;;;;;;;;;;1.76;54.36;96783.38;109275;1272;22577;-77
2023/03/18 02:35:08;;;;;;;;;;;;;;;1.76;54.14;96782.33;109231;1271;64960;-78
2023/03/18 02:37:38;;;;;;;;;;;;;;;1.75;54.30;96779.96;109241;1272;23348;-77
2023/03/18 02:40:14;;;;;;;;;;;;;;;1.74;54.27;96776.05;109270;1272;24196;-78
2023/03/18 02:42:44;;;;;;;;;;;;;;;1.75;54.37;96775.25;109265;1272;25224;-78
2023/03/18 02:45:22;;;;;;;;;;;;;;;1.85;54.00;96768.88;109175;1272;38953;-78
2023/03/18 02:47:53;;;;;;;;;;;;;;;1.92;53.90;96772.70;109256;1272;23355;-78
2023/03/18 02:50:23;;;;;;;;;;;;;;;1.97;53.62;96768.73;109290;1266;22493;-78
2023/03/18 02:52:52;;;;;;;;;;;;;;;1.98;53.37;96765.08;109255;1272;22496;-78
2023/03/18 02:55:22;;;;;;;;;;;;;;;1.93;53.10;96767.02;109185;1266;55910;-77
2023/03/18 02:57:51;;;;;;;;;;;;;;;1.80;53.47;96771.14;109298;1272;22560;-78
2023/03/18 03:00:22;;;;;;;;;;;;;;;1.71;53.68;96775.60;109313;1272;23179;-78
2023/03/18 03:02:52;;;;;;;;;;;;;;;1.71;53.70;96775.39;109249;1272;22493;-78
2023/03/18 03:05:22;;;;;;;;;;;;;;;1.79;53.45;96771.00;109080;1272;39355;-78
2023/03/18 03:07:51;;;;;;;;;;;;;;;1.84;53.29;96770.67;109144;1259;156671;-78
2023/03/18 03:10:21;;;;;;;;;;;;;;;1.87;53.24;96767.33;109314;1272;24162;-78
2023/03/18 03:12:51;;;;;;;;;;;;;;;1.91;52.97;96760.68;109076;1274;23815;-78
2023/03/18 03:15:20;;;;;;;;;;;;;;;1.92;53.10;96759.45;109022;1266;38160;-78
2023/03/18 03:17:50;;;;;;;;;;;;;;;1.92;53.06;96756.40;109085;1270;22516;-78
2023/03/18 03:20:20;;;;;;;;;;;;;;;1.89;53.14;96749.61;109080;1268;22444;-78
2023/03/18 03:22:49;;;;;;;;;;;;;;;1.86;53.08;96754.52;109077;1274;22507;-78
2023/03/18 03:25:28;;;;;;;;;;;;;;;1.84;52.98;96754.86;109035;1267;53782;-78
2023/03/18 03:27:57;;;;;;;;;;;;;;;1.77;53.13;96754.85;109047;1274;22496;-78
2023/03/18 03:30:27;;;;;;;;;;;;;;;1.69;53.18;96761.27;109087;1268;22495;-78
2023/03/18 03:32:56;;;;;;;;;;;;;;;1.63;53.52;96766.47;109077;1271;22523;-78
2023/03/18 03:35:26;;;;;;;;;;;;;;;1.57;53.63;96767.11;108989;1273;37596;-78
2023/03/18 03:37:56;;;;;;;;;;;;;;;1.53;53.65;96772.77;109088;1268;22502;-78
2023/03/18 03:40:26;;;;;;;;;;;;;;;1.48;53.60;96770.23;109083;1267;22511;-78
2023/03/18 03:42:56;;;;;;;;;;;;;;;1.47;53.81;96773.23;109053;1274;22542;-78
2023/03/18 03:45:25;;;;;;;;;;;;;;;1.45;53.78;96775.46;109074;1267;50672;-78
2023/03/18 03:47:55;;;;;;;;;;;;;;;1.43;53.65;96770.09;109111;1274;22500;-78
2023/03/18 03:50:25;;;;;;;;;;;;;;;1.45;53.81;96773.97;109087;1274;22532;-78
2023/03/18 03:52:55;;;;;;;;;;;;;;;1.47;53.91;96773.70;109057;1270;22642;-77
2023/03/18 03:55:24;;;;;;;;;;;;;;;1.48;53.80;96775.77;109049;1273;28324;-78
2023/03/18 03:57:54;;;;;;;;;;;;;;;1.49;53.75;96773.48;109043;1274;22550;-78
2023/03/18 04:00:25;;;;;;;;;;;;;;;1.46;53.95;96775.33;109101;1274;22496;-78
2023/03/18 04:02:55;;;;;;;;;;;;;;;1.44;53.58;96776.88;109110;1274;22608;-78
2023/03/18 04:05:24;;;;;;;;;;;;;;;1.47;53.78;96777.40;109105;1266;38978;-77
2023/03/18 04:07:58;;;;;;;;;;;;;;;1.47;53.97;96781.54;109033;1274;22590;-78
2023/03/18 04:10:28;;;;;;;;;;;;;;;1.41;53.60;96780.11;109107;1272;24213;-78
2023/03/18 04:13:00;;;;;;;;;;;;;;;1.41;53.82;96779.35;109237;1272;22626;-78
2023/03/18 04:15:30;;;;;;;;;;;;;;;1.42;53.81;96782.29;109207;1272;55994;-78
2023/03/18 04:18:05;;;;;;;;;;;;;;;1.45;53.72;96783.46;109266;1266;22531;-78
2023/03/18 04:20:36;;;;;;;;;;;;;;;1.46;53.96;96780.98;109218;1272;22953;-78
2023/03/18 04:23:06;;;;;;;;;;;;;;;1.49;53.93;96778.03;109247;1265;22556;-78
2023/03/18 04:25:35;;;;;;;;;;;;;;;1.50;53.79;96783.23;109215;1272;46879;-77
2023/03/18 04:28:05;;;;;;;;;;;;;;;1.48;53.90;96787.31;109242;1272;22513;-77
2023/03/18 04:30:34;;;;;;;;;;;;;;;1.49;53.83;96791.68;109241;1269;22511;-77
2023/03/18 04:33:04;;;;;;;;;;;;;;;1.48;53.68;96787.48;109209;1272;22508;-77
2023/03/18 04:35:34;;;;;;;;;;;;;;;1.47;53.66;96791.23;109226;1272;38234;-77
2023/03/18 04:38:03;;;;;;;;;;;;;;;1.47;54.01;96789.46;109223;1272;22719;-77
2023/03/18 04:40:33;;;;;;;;;;;;;;;1.49;53.93;96789.36;109227;1265;22513;-77
2023/03/18 04:43:03;;;;;;;;;;;;;;;1.49;53.84;96784.89;109249;1272;22552;-77
2023/03/18 04:45:32;;;;;;;;;;;;;;;1.49;53.99;96785.30;109160;1272;63547;-77
2023/03/18 04:48:03;;;;;;;;;;;;;;;1.48;53.83;96781.89;109244;1272;23700;-77
2023/03/18 04:50:32;;;;;;;;;;;;;;;1.50;53.99;96782.23;109210;1266;22519;-77
2023/03/18 04:53:02;;;;;;;;;;;;;;;1.56;53.84;96779.29;109148;1272;22492;-77
2023/03/18 04:55:32;;;;;;;;;;;;;;;1.68;53.87;96780.01;109223;1252;79264;-77
2023/03/18 04:58:02;;;;;;;;;;;;;;;1.74;53.73;96779.93;109224;1272;22455;-77
2023/03/18 05:00:32;;;;;;;;;;;;;;;1.90;53.77;96782.30;109212;1269;22486;-78
2023/03/18 05:03:02;;;;;;;;;;;;;;;2.25;53.23;96783.04;109243;1272;23723;-79
2023/03/18 05:05:33;;;;;;;;;;;;;;;2.61;52.81;96782.98;109167;1272;48774;-78
2023/03/18 05:08:02;;;;;;;;;;;;;;;2.91;52.41;96782.64;109244;1268;22670;-79
2023/03/18 05:10:32;;;;;;;;;;;;;;;3.11;51.67;96777.53;109275;1272;22610;-78
2023/03/18 05:13:02;;;;;;;;;;;;;;;3.18;51.29;96778.30;109189;1265;22492;-78
2023/03/18 05:15:32;;;;;;;;;;;;;;;3.21;51.31;96777.92;109202;1269;54748;-78
2023/03/18 05:18:03;;;;;;;;;;;;;;;3.45;50.53;96776.88;109220;1269;24213;-78
2023/03/18 05:20:32;;;;;;;;;;;;;;;3.58;49.92;96774.59;109241;1272;23800;-78
2023/03/18 05:23:03;;;;;;;;;;;;;;;3.67;49.94;96782.08;109268;1272;23629;-79
2023/03/18 05:25:32;;;;;;;;;;;;;;;3.88;49.63;96786.72;109130;1272;73263;-79
2023/03/18 05:28:03;;;;;;;;;;;;;;;4.24;49.33;96790.23;109213;1272;22478;-79
2023/03/18 05:30:35;;;;;;;;;;;;;;;4.57;48.57;96792.52;109226;1267;23842;-79
2023/03/18 05:33:05;;;;;;;;;;;;;;;5.03;48.35;96793.09;109222;1269;22488;-79
2023/03/18 05:35:35;;;;;;;;;;;;;;;5.52;47.75;96793.27;109184;1268;58662;-79
2023/03/18 05:38:05;;;;;;;;;;;;;;;5.81;47.01;96796.01;109230;1272;26052;-79
2023/03/18 05:40:35;;;;;;;;;;;;;;;6.27;46.72;96791.85;109213;1272;25421;-79
2023/03/18 05:43:05;;;;;;;;;;;;;;;6.75;45.70;96791.78;109241;1266;22618;-79
2023/03/18 05:45:35;;;;;;;;;;;;;;;6.77;44.71;96786.11;109193;1272;34416;-79
2023/03/18 05:48:05;;;;;;;;;;;;;;;6.64;44.22;96793.89;109212;1266;22512;-79
2023/03/18 05:50:36;;;;;;;;;;;;;;;6.69;43.73;96784.88;109243;1257;22489;-78
2023/03/18 05:53:05;;;;;;;;;;;;;;;6.52;43.31;96785.50;109208;1272;22541;-79
2023/03/18 05:55:37;;;;;;;;;;;;;;;6.57;43.52;96783.92;109187;1271;64045;-79
2023/03/18 05:58:07;;;;;;;;;;;;;;;6.82;43.07;96789.59;109256;1270;22580;-79
2023/03/18 06:00:37;;;;;;;;;;;;;;;7.27;43.64;96790.96;109264;1272;24263;-79
2023/03/18 06:03:07;;;;;;;;;;;;;;;7.72;42.47;96793.55;109251;1265;23102;-79
2023/03/18 06:05:37;;;;;;;;;;;;;;;8.14;42.10;96792.34;109203;1272;42594;-79
2023/03/18 06:08:06;;;;;;;;;;;;;;;8.06;40.86;96793.04;109201;1269;22517;-79
2023/03/18 06:10:36;;;;;;;;;;;;;;;8.28;42.03;96794.45;109242;1272;22523;-79
2023/03/18 06:13:06;;;;;;;;;;;;;;;8.95;41.71;96795.39;109166;1272;22501;-79
2023/03/18 06:15:36;;;;;;;;;;;;;;;9.70;42.06;96789.27;109223;1272;40341;-79
2023/03/18 06:18:06;;;;;;;;;;;;;;;10.64;41.22;96791.30;109198;1269;22524;-79
2023/03/18 06:20:35;;;;;;;;;;;;;;;11.08;39.86;96787.52;109158;1272;22513;-79
2023/03/18 06:23:05;;;;;;;;;;;;;;;10.95;38.75;96788.73;109226;1270;23911;-79
2023/03/18 06:25:35;;;;;;;;;;;;;;;10.73;38.27;96791.31;109211;1265;43969;-79
2023/03/18 06:28:05;;;;;;;;;;;;;;;10.62;38.26;96791.38;109229;1272;25425;-79
2023/03/18 06:30:34;;;;;;;;;;;;;;;10.68;38.10;96796.10;109221;1269;22512;-79
2023/03/18 06:33:04;;;;;;;;;;;;;;;10.61;38.20;96800.87;109229;1272;25208;-78
2023/03/18 06:35:34;;;;;;;;;;;;;;;10.72;38.04;96804.10;109186;1269;59189;-79
2023/03/18 06:38:03;;;;;;;;;;;;;;;10.87;37.44;96803.44;109242;1272;24314;-79
2023/03/18 06:40:33;;;;;;;;;;;;;;;10.90;37.01;96804.16;109173;1272;22501;-79
2023/03/18 06:43:02;;;;;;;;;;;;;;;11.10;38.11;96802.48;109213;1272;22489;-79
2023/03/18 06:45:32;;;;;;;;;;;;;;;12.01;38.07;96800.88;109182;1272;36503;-80
2023/03/18 06:48:02;;;;;;;;;;;;;;;12.28;36.15;96801.56;109220;1272;22532;-79
2023/03/18 06:50:32;;;;;;;;;;;;;;;12.77;36.88;96804.17;109223;1272;24210;-79
2023/03/18 06:53:02;;;;;;;;;;;;;;;13.44;35.19;96805.09;109281;1272;22540;-79
2023/03/18 06:55:32;;;;;;;;;;;;;;;13.99;35.73;96802.95;109184;1272;28047;-79
2023/03/18 06:58:01;;;;;;;;;;;;;;;14.76;33.98;96802.94;109219;1272;22534;-79
2023/03/18 07:00:31;;;;;;;;;;;;;;;15.32;34.07;96802.38;109210;1272;22832;-79
2023/03/18 07:03:01;;;;;;;;;;;;;;;16.36;34.37;96804.36;109185;1272;22496;-79
2023/03/18 07:05:31;;;;;;;;;;;;;;;17.68;33.98;96808.25;109144;1272;46272;-79
2023/03/18 07:08:01;;;;;;;;;;;;;;;18.24;32.03;96810.04;109208;1271;22495;-79
2023/03/18 07:10:31;;;;;;;;;;;;;;;18.23;30.82;96807.93;109254;1272;23114;-80
2023/03/18 07:13:01;;;;;;;;;;;;;;;17.81;30.32;96808.98;109214;1272;22502;-80
2023/03/18 07:15:30;;;;;;;;;;;;;;;17.83;30.07;96812.30;109227;1272;23724;-80
2023/03/18 07:18:01;;;;;;;;;;;;;;;17.99;29.99;96816.80;109222;1266;25393;-79
2023/03/18 07:20:31;;;;;;;;;;;;;;;18.17;29.38;96816.23;109252;1272;22541;-80
2023/03/18 07:23:02;;;;;;;;;;;;;;;17.58;28.25;96816.04;109243;1269;22560;-80
2023/03/18 07:25:32;;;;;;;;;;;;;;;17.28;29.33;96816.33;109091;1273;55240;-80
2023/03/18 07:28:02;;;;;;;;;;;;;;;17.94;29.05;96814.59;109208;1272;22522;-80
2023/03/18 07:30:32;;;;;;;;;;;;;;;18.02;28.32;96821.48;109207;1272;22526;-80
2023/03/18 07:33:02;;;;;;;;;;;;;;;17.84;28.48;96824.19;109196;1272;24167;-80
2023/03/18 07:35:32;;;;;;;;;;;;;;;18.32;27.93;96817.80;109195;1272;73631;-80
2023/03/18 07:38:02;;;;;;;;;;;;;;;18.11;28.42;96827.30;109255;1272;22504;-80
2023/03/18 07:40:31;;;;;;;;;;;;;;;18.55;27.87;96823.24;109213;1269;22768;-80
2023/03/18 07:43:01;;;;;;;;;;;;;;;18.75;27.76;96828.65;109231;1272;22526;-80
2023/03/18 07:45:31;;;;;;;;;;;;;;;19.02;28.04;96826.79;109158;1272;62339;-80
2023/03/18 07:48:00;;;;;;;;;;;;;;;19.65;27.20;96828.84;109238;1269;25207;-79
2023/03/18 07:50:30;;;;;;;;;;;;;;;19.26;27.49;96828.33;109225;1272;22500;-79
2023/03/18 07:53:01;;;;;;;;;;;;;;;20.12;27.46;96829.89;109213;1272;25234;-78
2023/03/18 07:55:30;;;;;;;;;;;;;;;20.55;26.37;96832.01;109127;1269;65078;-78
2023/03/18 07:58:00;;;;;;;;;;;;;;;20.55;25.92;96831.17;109204;1272;25469;-78
2023/03/18 08:00:29;;;;;;;;;;;;;;;20.35;25.57;96839.65;109245;1272;22517;-79
2023/03/18 08:02:59;;;;;;;;;;;;;;;20.54;25.93;96836.91;109181;1272;22815;-77
2023/03/18 08:05:30;;;;;;;;;;;;;;;20.56;24.21;96835.58;109169;1269;56505;-78
2023/03/18 08:08:01;;;;;;;;;;;;;;;20.07;25.16;96839.98;109242;1272;22651;-78
2023/03/18 08:10:31;;;;;;;;;;;;;;;20.28;25.48;96840.27;109215;1269;22488;-77
2023/03/18 08:13:00;;;;;;;;;;;;;;;20.45;24.20;96843.14;109212;1269;25380;-78
2023/03/18 08:15:30;;;;;;;;;;;;;;;20.22;24.62;96842.67;109184;1272;51052;-78
2023/03/18 08:17:59;;;;;;;;;;;;;;;19.95;23.21;96842.33;109209;1272;22517;-80
2023/03/18 08:20:29;;;;;;;;;;;;;;;19.54;25.07;96841.19;109232;1272;24012;-78
2023/03/18 08:22:59;;;;;;;;;;;;;;;19.73;23.74;96843.02;109202;1267;22489;-79
2023/03/18 08:25:28;;;;;;;;;;;;;;;19.53;24.02;96845.39;109191;1269;30524;-79
2023/03/18 08:27:58;;;;;;;;;;;;;;;19.23;24.29;96846.05;109192;1272;24328;-78
2023/03/18 08:30:29;;;;;;;;;;;;;;;19.33;24.32;96838.58;109212;1272;25261;-78
2023/03/18 08:32:58;;;;;;;;;;;;;;;19.01;23.85;96838.55;109191;1266;22503;-78
2023/03/18 08:35:29;;;;;;;;;;;;;;;18.68;25.17;96838.52;109206;1272;36289;-78
2023/03/18 08:37:59;;;;;;;;;;;;;;;18.61;24.15;96838.29;109198;1272;22537;-78
2023/03/18 08:40:28;;;;;;;;;;;;;;;18.11;24.91;96843.55;109215;1267;24232;-78
2023/03/18 08:42:58;;;;;;;;;;;;;;;17.71;24.49;96842.77;109179;1272;24234;-78
2023/03/18 08:45:27;;;;;;;;;;;;;;;17.27;25.20;96845.73;109162;1272;54545;-78
2023/03/18 08:47:57;;;;;;;;;;;;;;;17.19;25.76;96849.52;109194;1272;22906;-78
2023/03/18 08:50:28;;;;;;;;;;;;;;;17.15;25.87;96851.43;109241;1272;22512;-77
2023/03/18 08:52:59;;;;;;;;;;;;;;;16.64;25.67;96850.87;109223;1269;22514;-77
2023/03/18 08:55:30;;;;;;;;;;;;;;;15.94;26.34;96849.26;109234;1261;30574;-78
2023/03/18 08:58:00;;;;;;;;;;;;;;;15.67;27.07;96852.41;109226;1272;22530;-78
2023/03/18 09:00:30;;;;;;;;;;;;;;;16.13;27.59;96849.18;109206;1269;22629;-79
2023/03/18 09:03:00;;;;;;;;;;;;;;;16.50;27.11;96846.92;109226;1272;22521;-78
2023/03/18 09:05:31;;;;;;;;;;;;;;;16.33;27.42;96846.35;109144;1270;51180;-79
2023/03/18 09:08:01;;;;;;;;;;;;;;;16.20;27.39;96847.09;109187;1272;22564;-79
2023/03/18 09:10:30;;;;;;;;;;;;;;;15.76;27.98;96853.88;109243;1272;22488;-78
2023/03/18 09:12:59;;;;;;;;;;;;;;;15.34;28.33;96849.17;109231;1266;22523;-79
2023/03/18 09:15:30;;;;;;;;;;;;;;;15.19;28.92;96850.22;109137;1270;87106;-78
2023/03/18 09:17:59;;;;;;;;;;;;;;;14.57;28.92;96847.37;109231;1266;22504;-79
2023/03/18 09:20:29;;;;;;;;;;;;;;;14.08;29.85;96849.91;109209;1269;22519;-79
2023/03/18 09:22:59;;;;;;;;;;;;;;;13.71;30.01;96845.77;109248;1272;22532;-79
2023/03/18 09:25:29;;;;;;;;;;;;;;;13.42;30.46;96846.30;109186;1269;43164;-79
2023/03/18 09:27:59;;;;;;;;;;;;;;;13.35;30.60;96843.42;109236;1272;22524;-79
2023/03/18 09:30:30;;;;;;;;;;;;;;;13.18;30.90;96837.75;109222;1272;22692;-79
2023/03/18 09:33:01;;;;;;;;;;;;;;;12.95;31.39;96838.42;109225;1266;22592;-79
2023/03/18 09:35:31;;;;;;;;;;;;;;;13.02;31.59;96834.91;109170;1269;33269;-79
2023/03/18 09:38:00;;;;;;;;;;;;;;;13.09;31.52;96838.77;109226;1272;22493;-78
2023/03/18 09:40:31;;;;;;;;;;;;;;;12.88;31.45;96836.92;109232;1272;22547;-78
2023/03/18 09:43:07;;;;;;;;;;;;;;;12.74;31.77;96835.62;109201;1269;22511;-78
2023/03/18 09:45:43;;;;;;;;;;;;;;;12.70;32.20;96831.48;109163;1272;47403;-78
2023/03/18 09:48:28;;;;;;;;;;;;;;;12.72;31.42;96829.80;109237;1272;22441;-79
2023/03/18 09:51:03;;;;;;;;;;;;;;;12.69;31.11;96834.79;109219;1272;25389;-78
2023/03/18 09:53:38;;;;;;;;;;;;;;;12.73;31.21;96829.25;109240;1272;22455;-78
2023/03/18 09:56:12;;;;;;;;;;;;;;;12.93;31.31;96829.30;109220;1269;31366;-78
2023/03/18 09:58:46;;;;;;;;;;;;;;;13.12;30.84;96830.38;109193;1272;22497;-78
2023/03/18 10:01:16;;;;;;;;;;;;;;;13.13;30.83;96830.62;109253;1272;22438;-78
2023/03/18 10:03:50;;;;;;;;;;;;;;;13.36;31.00;96828.59;109215;1272;22504;-78
2023/03/18 10:06:21;;;;;;;;;;;;;;;13.44;30.45;96823.79;109167;1272;40648;-78
2023/03/18 10:08:55;;;;;;;;;;;;;;;13.43;30.83;96819.95;109213;1272;24305;-78
2023/03/18 10:11:29;;;;;;;;;;;;;;;13.62;30.78;96822.42;109243;1272;22484;-78
2023/03/18 10:14:07;;;;;;;;;;;;;;;13.72;30.53;96819.33;109267;1272;22461;-78
2023/03/18 10:16:41;;;;;;;;;;;;;;;13.53;30.63;96820.81;109218;1269;27499;-78
2023/03/18 10:19:11;;;;;;;;;;;;;;;13.67;30.62;96824.21;109191;1272;22869;-78
2023/03/18 10:21:44;;;;;;;;;;;;;;;13.56;30.39;96820.02;109207;1272;22543;-78
2023/03/18 10:24:21;;;;;;;;;;;;;;;13.59;30.93;96815.95;109220;1272;22830;-78
2023/03/18 10:26:57;;;;;;;;;;;;;;;13.71;30.44;96815.62;109148;1272;81988;-78
2023/03/18 10:29:34;;;;;;;;;;;;;;;13.87;30.89;96814.16;109207;1272;22562;-78
2023/03/18 10:32:09;;;;;;;;;;;;;;;14.04;30.65;96808.61;109263;1272;22501;-78
2023/03/18 10:34:44;;;;;;;;;;;;;;;14.22;31.29;96808.77;109223;1272;25245;-78
2023/03/18 10:37:18;;;;;;;;;;;;;;;14.38;30.83;96808.20;109208;1272;38229;-78
2023/03/18 10:39:49;;;;;;;;;;;;;;;14.26;30.61;96808.38;109241;1269;22633;-78
2023/03/18 10:42:25;;;;;;;;;;;;;;;14.08;30.44;96804.02;109176;1263;22684;-78
2023/03/18 10:44:56;;;;;;;;;;;;;;;14.12;31.25;96805.70;109170;1272;22492;-78
2023/03/18 10:47:28;;;;;;;;;;;;;;;14.32;31.53;96803.98;109215;1269;37074;-78
2023/03/18 10:50:03;;;;;;;;;;;;;;;14.24;30.48;96798.60;109280;1272;22513;-78
2023/03/18 10:52:34;;;;;;;;;;;;;;;13.92;30.54;96800.85;109219;1269;25258;-78
2023/03/18 10:55:04;;;;;;;;;;;;;;;13.78;30.85;96794.61;109208;1266;36144;-79
2023/03/18 10:57:35;;;;;;;;;;;;;;;13.82;31.14;96794.73;109231;1266;22538;-78
2023/03/18 11:00:06;;;;;;;;;;;;;;;13.74;30.87;96796.16;109205;1272;25480;-78
2023/03/18 11:02:39;;;;;;;;;;;;;;;13.72;31.36;96796.58;109336;1272;22529;-78
2023/03/18 11:05:17;;;;;;;;;;;;;;;13.82;31.24;96797.88;109157;1269;22607;-78
2023/03/18 11:08:00;;;;;;;;;;;;;;;13.98;31.80;96791.14;109261;1272;25415;-78
2023/03/18 11:10:32;;;;;;;;;;;;;;;14.22;31.48;96787.38;109184;1271;22520;-78
2023/03/18 11:13:03;;;;;;;;;;;;;;;14.31;31.21;96785.77;109267;1272;22627;-78
2023/03/18 11:15:36;;;;;;;;;;;;;;;14.07;30.66;96783.13;109216;1272;22493;-78
2023/03/18 11:18:05;;;;;;;;;;;;;;;13.94;31.06;96779.81;109229;1267;22524;-78
2023/03/18 11:20:41;;;;;;;;;;;;;;;13.92;31.21;96778.17;109238;1269;22471;-78
2023/03/18 11:23:18;;;;;;;;;;;;;;;13.94;31.35;96776.92;109218;1272;22822;-78
2023/03/18 11:25:48;;;;;;;;;;;;;;;14.06;31.43;96774.78;109177;1269;24243;-78
2023/03/18 11:28:25;;;;;;;;;;;;;;;14.13;31.69;96776.42;109244;1272;22946;-77
2023/03/18 11:31:05;;;;;;;;;;;;;;;14.22;31.57;96773.36;109219;1272;22538;-78
2023/03/18 11:33:37;;;;;;;;;;;;;;;14.14;30.94;96768.55;109247;1267;22487;-77
2023/03/18 11:36:09;;;;;;;;;;;;;;;13.98;31.02;96768.33;109205;1272;22537;-77
2023/03/18 11:38:38;;;;;;;;;;;;;;;13.83;30.54;96766.90;109249;1269;22507;-77
2023/03/18 11:41:09;;;;;;;;;;;;;;;13.73;31.57;96761.77;109221;1272;22510;-77
2023/03/18 11:43:40;;;;;;;;;;;;;;;13.88;31.25;96761.86;109253;1272;22608;-78
2023/03/18 11:46:10;;;;;;;;;;;;;;;13.85;30.75;96760.63;109202;1272;31736;-77
2023/03/18 11:48:42;;;;;;;;;;;;;;;13.81;31.78;96754.36;109230;1269;22493;-78
2023/03/18 11:51:22;;;;;;;;;;;;;;;14.09;32.30;96758.09;109232;1272;22489;-78
2023/03/18 11:54:00;;;;;;;;;;;;;;;14.29;31.44;96753.38;109250;1272;24590;-78
2023/03/18 11:56:31;;;;;;;;;;;;;;;14.41;31.75;96749.46;109225;1272;22843;-77
2023/03/18 11:59:08;;;;;;;;;;;;;;;14.54;31.15;96744.66;109246;1270;22524;-77
2023/03/18 12:01:43;;;;;;;;;;;;;;;14.51;31.41;96745.64;109206;1272;22535;-78
2023/03/18 12:04:22;;;;;;;;;;;;;;;14.59;31.05;96745.30;109211;1269;23751;-78
2023/03/18 12:06:58;;;;;;;;;;;;;;;14.62;31.37;96745.77;109235;1272;22495;-78
2023/03/18 12:09:33;;;;;;;;;;;;;;;14.78;31.25;96743.70;109191;1272;22584;-77
2023/03/18 12:12:08;;;;;;;;;;;;;;;14.79;31.10;96739.33;109199;1269;22503;-78
2023/03/18 12:14:44;;;;;;;;;;;;;;;14.70;31.18;96741.70;109215;1272;23275;-78
2023/03/18 12:17:22;;;;;;;;;;;;;;;14.66;30.90;96736.30;109315;1265;22966;-78
2023/03/18 12:20:01;;;;;;;;;;;;;;;14.64;30.72;96736.33;109235;1272;22451;-78
2023/03/18 12:22:38;;;;;;;;;;;;;;;14.69;31.15;96730.19;109258;1272;22516;-78
2023/03/18 12:25:17;;;;;;;;;;;;;;;14.76;31.02;96732.39;109256;1272;24502;-78
2023/03/18 12:27:52;;;;;;;;;;;;;;;14.93;30.81;96734.09;109249;1272;25211;-78
2023/03/18 12:30:31;;;;;;;;;;;;;;;15.04;30.67;96725.21;109250;1272;22536;-78
2023/03/18 12:33:03;;;;;;;;;;;;;;;15.19;30.44;96724.32;109260;1272;23238;-78
2023/03/18 12:35:40;;;;;;;;;;;;;;;15.10;29.85;96724.98;109213;1272;43231;-78
2023/03/18 12:38:17;;;;;;;;;;;;;;;14.98;30.43;96725.15;109224;1272;22538;-78
2023/03/18 12:40:53;;;;;;;;;;;;;;;15.15;30.52;96722.44;109242;1272;22457;-78
2023/03/18 12:43:32;;;;;;;;;;;;;;;15.07;29.20;96717.14;109170;1272;22485;-78
2023/03/18 12:46:04;;;;;;;;;;;;;;;14.91;29.89;96716.45;109161;1272;22506;-78
2023/03/18 12:48:39;;;;;;;;;;;;;;;14.92;29.94;96716.70;109217;1267;22524;-78
2023/03/18 12:51:11;;;;;;;;;;;;;;;15.07;30.60;96714.20;109255;1272;24238;-78
2023/03/18 12:53:44;;;;;;;;;;;;;;;15.15;29.99;96712.19;109310;1272;22494;-78
2023/03/18 12:56:17;;;;;;;;;;;;;;;15.22;30.16;96705.73;109266;1272;22485;-78
2023/03/18 12:58:50;;;;;;;;;;;;;;;15.26;29.61;96706.04;109258;1272;22598;-78
2023/03/18 13:01:20;;;;;;;;;;;;;;;15.02;29.40;96707.59;109381;1267;22480;-78